createdAt,value
2023-11-18T00:01:38.563Z,5.22
2023-11-18T00:06:41.582Z,4.90
2023-11-18T00:11:44.374Z,5.47
2023-11-18T00:16:47.612Z,5.35
2023-11-18T00:21:50.610Z,5.20
2023-11-18T00:26:54.192Z,5.53
2023-11-18T00:31:56.981Z,5.20
2023-11-18T00:36:59.959Z,5.32
2023-11-18T00:42:05.048Z,5.88
2023-11-18T00:47:08.349Z,5.63
2023-11-18T00:52:11.269Z,5.72
2023-11-18T00:57:14.170Z,5.47
2023-11-18T01:02:18.228Z,5.10
2023-11-18T01:07:21.093Z,5.05
2023-11-18T01:12:23.910Z,5.10
2023-11-18T01:17:26.757Z,5.80
2023-11-18T01:22:30.904Z,4.93
2023-11-18T01:27:35.427Z,5.57
2023-11-18T01:32:38.540Z,5.68
2023-11-18T01:37:41.523Z,5.88
2023-11-18T01:42:48.097Z,5.65
2023-11-18T01:47:51.326Z,5.70
2023-11-18T01:52:54.685Z,5.50
2023-11-18T01:58:00.099Z,5.70
2023-11-18T02:03:04.030Z,4.78
2023-11-18T02:08:08.645Z,4.97
2023-11-18T02:13:17.033Z,5.07
2023-11-18T02:18:20.808Z,4.55
2023-11-18T02:23:43.844Z,4.30
2023-11-18T02:28:47.098Z,5.22
2023-11-18T02:34:17.237Z,5.13
2023-11-18T02:39:40.167Z,4.25
2023-11-18T02:44:44.534Z,4.55
2023-11-18T02:49:50.211Z,4.40
2023-11-18T02:54:53.197Z,4.10
2023-11-18T02:59:56.066Z,4.55
2023-11-18T03:04:59.541Z,5.38
2023-11-18T03:10:03.143Z,4.80
2023-11-18T03:15:08.086Z,4.88
2023-11-18T03:20:13.598Z,4.72
2023-11-18T03:25:16.950Z,4.80
2023-11-18T03:30:20.123Z,4.60
2023-11-18T03:35:25.769Z,5.00
2023-11-18T03:40:30.500Z,4.35
2023-11-18T03:45:33.693Z,4.72
2023-11-18T03:50:36.593Z,4.50
2023-11-18T03:55:39.714Z,4.68
2023-11-18T04:00:43.460Z,5.03
2023-11-18T04:05:46.279Z,3.00
2023-11-18T04:10:49.096Z,3.30
2023-11-18T04:15:52.301Z,3.50
2023-11-18T04:20:55.048Z,3.03
2023-11-18T04:25:57.937Z,3.33
2023-11-18T04:31:02.187Z,3.65
2023-11-18T04:36:07.016Z,3.10
2023-11-18T04:41:09.952Z,3.95
2023-11-18T04:46:13.991Z,3.50
2023-11-18T04:51:19.003Z,3.08
2023-11-18T04:56:23.255Z,4.18
2023-11-18T05:01:26.076Z,3.50
2023-11-18T05:06:29.117Z,3.58
2023-11-18T05:11:32.019Z,3.72
2023-11-18T05:16:34.892Z,3.42
2023-11-18T05:21:37.934Z,3.95
2023-11-18T05:26:42.147Z,5.20
2023-11-18T05:31:45.304Z,4.40
2023-11-18T05:36:50.084Z,5.22
2023-11-18T05:41:52.918Z,5.25
2023-11-18T05:46:55.698Z,4.78
2023-11-18T05:51:59.392Z,4.65
2023-11-18T05:57:02.263Z,5.10
2023-11-18T06:02:05.413Z,5.05
2023-11-18T06:07:08.339Z,5.13
2023-11-18T06:12:12.733Z,4.68
2023-11-18T06:17:15.739Z,4.55
2023-11-18T06:22:18.798Z,4.65
2023-11-18T06:27:25.406Z,4.57
2023-11-18T06:32:28.285Z,4.70
2023-11-18T06:37:34.527Z,3.88
2023-11-18T06:42:40.604Z,5.03
2023-11-18T06:47:47.127Z,5.60
2023-11-18T06:52:50.207Z,6.40
2023-11-18T06:57:53.507Z,5.82
2023-11-18T07:02:56.943Z,6.38
2023-11-18T07:07:59.806Z,5.40
2023-11-18T07:13:02.593Z,4.93
2023-11-18T07:18:05.487Z,5.43
2023-11-18T07:23:10.128Z,4.38
2023-11-18T07:33:16.288Z,4.90
2023-11-18T07:38:22.266Z,4.57
2023-11-18T07:43:25.109Z,4.50
2023-11-18T07:48:29.274Z,4.28
2023-11-18T07:53:31.948Z,4.88
2023-11-18T07:58:38.856Z,6.07
2023-11-18T08:03:45.376Z,6.45
2023-11-18T08:08:49.679Z,6.47
2023-11-18T08:13:52.982Z,5.35
2023-11-18T08:18:57.782Z,5.68
2023-11-18T08:24:01.688Z,6.25
2023-11-18T08:29:05.205Z,5.60
2023-11-18T08:34:08.062Z,5.65
2023-11-18T08:39:12.623Z,5.55
2023-11-18T08:44:23.777Z,5.78
2023-11-18T08:49:27.524Z,5.90
2023-11-18T08:54:39.447Z,4.90
2023-11-18T08:59:43.050Z,4.93
2023-11-18T09:04:45.888Z,4.90
2023-11-18T09:09:51.056Z,3.60
2023-11-18T09:14:55.592Z,4.88
2023-11-18T09:19:58.353Z,3.90
2023-11-18T09:25:02.643Z,3.70
2023-11-18T09:30:15.269Z,3.67
2023-11-18T09:35:18.935Z,4.05
2023-11-18T09:40:26.363Z,4.82
2023-11-18T09:45:30.329Z,4.40
2023-11-18T09:50:33.976Z,4.72
2023-11-18T09:55:51.471Z,5.00
2023-11-18T10:00:57.593Z,4.82
2023-11-18T10:06:06.450Z,5.40
2023-11-18T10:11:10.960Z,4.70
2023-11-18T10:16:13.748Z,5.22
2023-11-18T10:21:19.827Z,5.00
2023-11-18T10:26:26.586Z,4.80
2023-11-18T10:31:30.189Z,4.18
2023-11-18T10:36:34.828Z,5.80
2023-11-18T10:41:44.059Z,5.90
2023-11-18T10:46:56.275Z,3.63
2023-11-18T10:52:00.451Z,4.97
2023-11-18T10:57:09.439Z,4.30
2023-11-18T11:02:25.484Z,3.63
2023-11-18T11:07:30.321Z,2.80
2023-11-18T11:12:35.218Z,2.90
2023-11-18T11:17:41.544Z,3.35
2023-11-18T11:22:54.503Z,2.90
2023-11-18T11:28:21.293Z,3.13
2023-11-18T11:33:24.112Z,3.50
2023-11-18T11:38:28.427Z,3.83
2023-11-18T11:43:31.637Z,2.85
2023-11-18T11:48:37.756Z,2.17
2023-11-18T11:53:46.960Z,3.05
2023-11-18T11:58:55.290Z,4.50
2023-11-18T12:03:59.543Z,3.17
2023-11-18T12:09:07.501Z,5.10
2023-11-18T12:14:36.943Z,5.82
2023-11-18T12:19:48.654Z,5.28
2023-11-18T12:25:00.704Z,5.00
2023-11-18T12:30:06.482Z,8.05
2023-11-18T12:35:18.671Z,7.05
2023-11-18T12:40:48.156Z,7.95
2023-11-18T12:46:08.788Z,6.60
2023-11-18T12:51:20.855Z,7.57
2023-11-18T12:56:27.580Z,5.97
2023-11-18T13:01:34.328Z,7.75
2023-11-18T13:06:37.534Z,6.78
2023-11-18T13:11:44.057Z,6.60
2023-11-18T13:16:48.250Z,6.05
2023-11-18T13:21:51.158Z,7.40
2023-11-18T13:26:56.350Z,7.32
2023-11-18T13:32:01.898Z,6.40
2023-11-18T13:37:08.593Z,6.32
2023-11-18T13:42:24.801Z,6.45
2023-11-18T13:47:30.589Z,6.18
2023-11-18T13:52:33.479Z,6.20
2023-11-18T13:57:36.450Z,5.85
2023-11-18T14:02:39.279Z,5.65
2023-11-18T14:07:42.261Z,6.82
2023-11-18T14:13:02.049Z,7.28
2023-11-18T14:18:05.489Z,5.47
2023-11-18T14:23:10.366Z,6.22
2023-11-18T14:33:17.081Z,6.35
2023-11-18T14:38:20.204Z,7.05
2023-11-18T14:43:23.188Z,7.93
2023-11-18T14:48:25.960Z,8.48
2023-11-18T14:53:28.997Z,8.52
2023-11-18T14:58:31.886Z,9.82
2023-11-18T15:03:38.159Z,9.52
2023-11-18T15:08:46.547Z,7.80
2023-11-18T15:13:49.793Z,7.95
2023-11-18T15:18:54.179Z,7.05
2023-11-18T15:24:06.399Z,5.65
2023-11-18T15:29:16.328Z,6.95
2023-11-18T15:34:20.818Z,7.88
2023-11-18T15:39:25.096Z,6.47
2023-11-18T15:44:30.037Z,7.70
2023-11-18T15:49:32.871Z,7.35
2023-11-18T15:54:35.919Z,7.35
2023-11-18T15:59:39.847Z,6.47
2023-11-18T16:04:42.663Z,6.07
2023-11-18T16:09:45.701Z,6.35
2023-11-18T16:14:48.967Z,6.13
2023-11-18T16:19:52.021Z,4.57
2023-11-18T16:24:54.958Z,4.07
2023-11-18T16:29:57.992Z,4.63
2023-11-18T16:35:00.910Z,3.58
2023-11-18T16:40:06.352Z,4.43
2023-11-18T16:45:10.617Z,4.00
2023-11-18T16:50:14.225Z,4.35
2023-11-18T16:55:17.560Z,4.03
2023-11-18T17:00:24.547Z,3.97
2023-11-18T17:05:33.086Z,4.03
2023-11-18T17:10:36.717Z,3.42
2023-11-18T17:15:40.318Z,3.97
2023-11-18T17:20:43.677Z,3.70
2023-11-18T17:25:46.537Z,4.38
2023-11-18T17:30:49.573Z,4.10
2023-11-18T17:35:52.442Z,3.17
2023-11-18T17:40:55.532Z,4.22
2023-11-18T17:45:58.543Z,3.67
2023-11-18T17:51:01.656Z,4.50
2023-11-18T17:56:07.166Z,3.72
2023-11-18T18:01:10.495Z,4.85
2023-11-18T18:06:14.449Z,4.72
2023-11-18T18:11:18.489Z,4.30
2023-11-18T18:16:21.540Z,4.47
2023-11-18T18:21:24.601Z,5.45
2023-11-18T18:26:27.565Z,4.50
2023-11-18T18:31:30.574Z,4.60
2023-11-18T18:36:34.587Z,5.15
2023-11-18T18:41:37.754Z,4.45
2023-11-18T18:46:41.039Z,3.90
2023-11-18T18:51:43.998Z,4.65
2023-11-18T18:56:47.065Z,4.88
2023-11-18T19:01:51.535Z,4.28
2023-11-18T19:06:56.555Z,4.85
2023-11-18T19:17:06.236Z,4.50
2023-11-18T19:22:09.976Z,4.20
2023-11-18T19:27:16.607Z,4.18
2023-11-18T19:32:19.958Z,3.92
2023-11-18T19:37:22.967Z,5.00
2023-11-18T19:42:25.836Z,4.18
2023-11-18T19:47:30.926Z,4.93
2023-11-18T19:52:34.187Z,4.78
2023-11-18T19:57:37.440Z,4.63
2023-11-18T20:02:42.778Z,4.60
2023-11-18T20:07:45.703Z,4.10
2023-11-18T20:12:48.684Z,4.38
2023-11-18T20:17:52.803Z,4.57
2023-11-18T20:22:56.188Z,4.80
2023-11-18T20:27:59.148Z,4.32
2023-11-18T20:33:02.334Z,4.35
2023-11-18T20:38:05.289Z,3.97
2023-11-18T20:43:09.464Z,4.47
2023-11-18T20:48:12.271Z,4.65
2023-11-18T20:53:15.037Z,4.53
2023-11-18T20:58:18.021Z,4.45
2023-11-18T21:03:21.405Z,5.65
2023-11-18T21:08:25.245Z,3.83
2023-11-18T21:13:29.385Z,4.10
2023-11-18T21:18:32.480Z,4.43
2023-11-18T21:23:35.311Z,5.68
2023-11-18T21:28:39.458Z,4.97
2023-11-18T21:33:43.123Z,5.03
2023-11-18T21:38:53.462Z,4.30
2023-11-18T21:49:02.556Z,4.75
2023-11-18T21:54:05.863Z,4.55
2023-11-18T21:59:09.072Z,4.22
2023-11-18T22:04:12.350Z,4.40
2023-11-18T22:09:17.571Z,4.50
2023-11-18T22:14:20.491Z,4.50
2023-11-18T22:19:24.234Z,4.22
2023-11-18T22:24:27.155Z,5.55
2023-11-18T22:29:30.545Z,5.13
2023-11-18T22:34:36.652Z,5.70
2023-11-18T22:39:39.679Z,4.80
2023-11-18T22:44:46.832Z,6.07
2023-11-18T22:49:50.319Z,5.47
2023-11-18T22:54:53.310Z,4.15
2023-11-18T22:59:56.392Z,4.57
2023-11-18T23:05:02.950Z,4.38
2023-11-18T23:10:08.709Z,4.63
2023-11-18T23:15:12.081Z,4.22
2023-11-18T23:20:14.871Z,4.25
2023-11-18T23:25:18.059Z,7.80
2023-11-18T23:30:22.505Z,6.53
2023-11-18T23:35:25.481Z,5.93
2023-11-18T23:40:28.915Z,5.75
2023-11-18T23:45:32.433Z,6.95
2023-11-18T23:50:37.213Z,5.00
2023-11-18T23:55:40.165Z,4.43
